createdAt,value
2022-12-19T00:02:55.228Z,0.81
2022-12-19T00:07:59.050Z,0.94
2022-12-19T00:13:07.998Z,1.03
2022-12-19T00:18:13.094Z,1.15
2022-12-19T00:23:16.860Z,1.24
2022-12-19T00:28:20.626Z,1.29
2022-12-19T00:33:26.441Z,1.34
2022-12-19T00:38:30.635Z,1.35
2022-12-19T00:43:34.327Z,1.36
2022-12-19T00:48:41.826Z,1.38
2022-12-19T00:53:47.384Z,1.42
2022-12-19T00:58:53.263Z,1.44
2022-12-19T01:04:27.177Z,1.47
2022-12-19T01:09:23.785Z,1.46
2022-12-19T01:14:27.456Z,1.49
2022-12-19T01:19:32.488Z,1.53
2022-12-19T01:24:36.214Z,1.58
2022-12-19T01:29:51.783Z,1.58
2022-12-19T01:34:58.057Z,1.61
2022-12-19T01:40:01.762Z,1.65
2022-12-19T01:45:22.563Z,1.69
2022-12-19T01:50:33.225Z,1.73
2022-12-19T01:55:38.308Z,1.80
2022-12-19T02:00:44.271Z,1.87
2022-12-19T02:05:50.431Z,1.92
2022-12-19T02:10:55.273Z,1.98
2022-12-19T02:16:07.430Z,2.00
2022-12-19T02:21:30.009Z,2.09
2022-12-19T02:27:07.054Z,2.14
2022-12-19T02:32:20.698Z,2.18
2022-12-19T02:37:29.064Z,2.28
2022-12-19T02:42:37.333Z,2.31
2022-12-19T02:47:43.406Z,2.41
2022-12-19T02:52:49.428Z,2.47
2022-12-19T02:58:38.975Z,2.54
2022-12-19T03:03:51.944Z,2.61
2022-12-19T03:09:02.429Z,2.66
2022-12-19T03:14:09.128Z,2.71
2022-12-19T03:19:15.709Z,2.77
2022-12-19T03:24:20.756Z,2.91
2022-12-19T03:29:30.420Z,3.03
2022-12-19T03:34:41.546Z,3.10
2022-12-19T03:39:50.905Z,3.13
2022-12-19T03:44:56.695Z,3.27
2022-12-19T03:50:02.436Z,3.42
2022-12-19T03:55:12.329Z,3.46
2022-12-19T04:00:18.796Z,3.52
2022-12-19T04:05:26.588Z,3.62
2022-12-19T04:10:31.311Z,3.74
2022-12-19T04:15:43.346Z,3.79
2022-12-19T04:20:56.147Z,3.95
2022-12-19T04:26:03.691Z,3.92
2022-12-19T04:31:08.925Z,4.05
2022-12-19T04:36:14.095Z,4.10
2022-12-19T04:41:17.741Z,4.25
2022-12-19T04:46:21.448Z,4.35
2022-12-19T04:51:26.550Z,4.39
2022-12-19T04:56:30.201Z,4.47
2022-12-19T05:01:34.002Z,4.49
2022-12-19T05:06:39.101Z,4.56
2022-12-19T05:11:42.879Z,4.73
2022-12-19T05:16:46.835Z,4.83
2022-12-19T05:21:51.859Z,4.83
2022-12-19T05:26:55.566Z,4.92
2022-12-19T05:31:59.324Z,5.08
2022-12-19T05:37:04.633Z,5.08
2022-12-19T05:42:12.115Z,5.11
2022-12-19T05:47:16.256Z,5.14
2022-12-19T05:52:21.455Z,5.23
2022-12-19T05:57:25.213Z,5.21
2022-12-19T06:02:33.788Z,5.25
2022-12-19T06:07:38.938Z,5.28
2022-12-19T06:12:42.717Z,5.31
2022-12-19T06:17:46.621Z,5.39
2022-12-19T06:22:51.676Z,5.37
2022-12-19T06:27:55.410Z,5.45
2022-12-19T06:32:59.141Z,5.47
2022-12-19T06:38:04.246Z,5.64
2022-12-19T06:43:07.946Z,5.63
2022-12-19T06:48:11.619Z,5.72
2022-12-19T06:53:16.718Z,5.74
2022-12-19T06:58:24.356Z,5.79
2022-12-19T07:03:32.746Z,5.79
2022-12-19T07:08:37.797Z,5.83
2022-12-19T07:13:41.485Z,5.85
2022-12-19T07:18:45.180Z,5.82
2022-12-19T07:23:50.361Z,5.89
2022-12-19T07:28:54.623Z,5.94
2022-12-19T07:33:58.956Z,6.00
2022-12-19T07:39:04.795Z,6.01
2022-12-19T07:44:09.258Z,6.07
2022-12-19T07:49:14.247Z,6.07
2022-12-19T07:54:22.069Z,6.08
2022-12-19T07:59:30.354Z,6.11
2022-12-19T08:04:36.587Z,6.12
2022-12-19T08:09:41.674Z,6.17
2022-12-19T08:14:45.401Z,6.18
2022-12-19T08:19:49.144Z,6.24
2022-12-19T08:24:54.245Z,6.25
2022-12-19T08:29:57.907Z,6.27
2022-12-19T08:35:01.669Z,6.30
2022-12-19T08:40:08.258Z,6.29
2022-12-19T08:45:12.112Z,6.39
2022-12-19T08:50:15.867Z,6.37
2022-12-19T08:55:21.705Z,6.40
2022-12-19T09:00:25.629Z,6.39
2022-12-19T09:06:05.439Z,6.44
2022-12-19T09:11:00.715Z,6.46
2022-12-19T09:16:06.456Z,6.50
2022-12-19T09:21:10.483Z,6.51
2022-12-19T09:26:15.492Z,6.53
2022-12-19T09:31:21.383Z,6.52
2022-12-19T09:36:26.974Z,6.61
2022-12-19T09:41:45.744Z,6.62
2022-12-19T09:46:52.298Z,6.69
2022-12-19T09:52:02.159Z,6.71
2022-12-19T09:57:15.498Z,6.79
2022-12-19T10:02:28.243Z,6.89
2022-12-19T10:07:57.823Z,6.90
2022-12-19T10:13:14.698Z,6.93
2022-12-19T10:18:36.218Z,7.08
2022-12-19T10:23:58.776Z,7.07
2022-12-19T10:29:20.669Z,7.19
2022-12-19T10:34:29.472Z,7.24
2022-12-19T10:39:38.162Z,7.19
2022-12-19T10:44:45.088Z,7.18
2022-12-19T10:49:49.383Z,7.11
2022-12-19T10:54:53.167Z,7.14
2022-12-19T11:00:00.611Z,7.13
2022-12-19T11:05:05.658Z,7.16
2022-12-19T11:11:38.605Z,7.15
2022-12-19T11:23:04.598Z,7.15
2022-12-19T11:29:14.881Z,7.25
2022-12-19T11:30:48.671Z,7.30
2022-12-19T11:32:47.076Z,7.35
2022-12-19T11:37:56.010Z,7.41
2022-12-19T11:43:42.664Z,7.46
2022-12-19T11:48:39.770Z,7.51
2022-12-19T11:53:52.108Z,7.55
2022-12-19T11:58:59.128Z,7.65
2022-12-19T12:04:46.244Z,7.66
2022-12-19T12:15:57.708Z,7.66
2022-12-19T12:28:03.522Z,7.70
2022-12-19T12:31:17.476Z,7.81
2022-12-19T12:31:41.879Z,7.90
2022-12-19T12:35:40.501Z,8.02
2022-12-19T12:43:23.424Z,8.26
2022-12-19T12:48:31.250Z,8.37
2022-12-19T12:53:39.483Z,8.35
2022-12-19T12:58:44.825Z,8.32
2022-12-19T13:03:59.861Z,8.30
2022-12-19T13:09:21.207Z,8.31
2022-12-19T13:14:49.926Z,8.38
2022-12-19T13:19:56.521Z,8.38
2022-12-19T13:25:02.270Z,8.35
2022-12-19T13:30:17.327Z,8.37
2022-12-19T13:39:24.151Z,8.39
2022-12-19T13:41:02.058Z,8.42
2022-12-19T13:46:19.371Z,8.44
2022-12-19T13:51:23.543Z,8.46
2022-12-19T13:56:31.884Z,8.50
2022-12-19T14:01:36.730Z,8.47
2022-12-19T14:06:42.557Z,8.56
2022-12-19T14:12:28.197Z,8.59
2022-12-19T14:17:15.066Z,8.60
2022-12-19T14:22:25.801Z,8.71
2022-12-19T14:28:23.522Z,8.70
2022-12-19T14:33:46.160Z,8.81
2022-12-19T14:39:25.839Z,8.93
2022-12-19T14:53:17.516Z,8.86
2022-12-19T14:54:16.319Z,8.99
2022-12-19T14:56:08.775Z,8.97
2022-12-19T15:01:09.549Z,8.87
2022-12-19T15:07:05.297Z,8.90
2022-12-19T15:13:30.451Z,9.00
2022-12-19T15:17:28.448Z,8.97
2022-12-19T15:22:32.151Z,8.92
2022-12-19T15:27:36.088Z,8.90
2022-12-19T15:32:41.445Z,8.89
2022-12-19T15:37:45.737Z,8.86
2022-12-19T15:42:54.948Z,8.89
2022-12-19T15:48:00.288Z,8.82
2022-12-19T15:53:24.412Z,8.80
2022-12-19T15:58:35.711Z,8.73
2022-12-19T16:03:41.098Z,8.64
2022-12-19T16:08:45.069Z,8.65
2022-12-19T16:13:52.809Z,8.64
2022-12-19T16:18:58.523Z,8.63
2022-12-19T16:24:02.275Z,8.72
2022-12-19T16:29:06.621Z,8.76
2022-12-19T16:34:15.888Z,8.78
2022-12-19T16:39:19.815Z,8.84
2022-12-19T16:44:25.565Z,8.84
2022-12-19T16:49:32.097Z,8.93
2022-12-19T16:54:35.877Z,8.95
2022-12-19T16:59:41.318Z,8.98
2022-12-19T17:04:50.505Z,8.90
2022-12-19T17:09:57.556Z,8.89
2022-12-19T17:15:01.382Z,8.91
2022-12-19T17:20:10.778Z,8.87
2022-12-19T17:25:18.831Z,8.84
2022-12-19T17:30:23.429Z,8.84
2022-12-19T17:35:32.756Z,8.83
2022-12-19T17:40:36.773Z,8.78
2022-12-19T17:45:41.451Z,8.76
2022-12-19T17:50:46.692Z,8.83
2022-12-19T17:55:50.688Z,8.84
2022-12-19T18:00:54.671Z,8.88
2022-12-19T18:05:59.887Z,8.91
2022-12-19T18:11:07.573Z,8.85
2022-12-19T18:16:14.284Z,8.83
2022-12-19T18:21:22.368Z,8.84
2022-12-19T18:26:26.079Z,8.77
2022-12-19T18:31:30.390Z,8.80
2022-12-19T18:36:40.858Z,8.76
2022-12-19T18:41:44.594Z,8.70
2022-12-19T18:46:50.430Z,8.65
2022-12-19T18:51:55.550Z,8.63
2022-12-19T18:56:59.670Z,8.59
2022-12-19T19:02:04.894Z,8.62
2022-12-19T19:07:12.054Z,8.65
2022-12-19T19:12:15.753Z,8.59
2022-12-19T19:17:26.124Z,8.52
2022-12-19T19:22:31.171Z,8.47
2022-12-19T19:27:35.104Z,8.43
2022-12-19T19:32:45.227Z,8.44
2022-12-19T19:37:52.325Z,8.40
2022-12-19T19:42:56.246Z,8.40
2022-12-19T19:48:03.987Z,8.41
2022-12-19T19:53:09.233Z,8.38
2022-12-19T19:58:13.027Z,8.33
2022-12-19T20:03:22.464Z,8.28
2022-12-19T20:08:33.663Z,8.30
2022-12-19T20:13:42.565Z,8.23
2022-12-19T20:18:49.868Z,8.31
2022-12-19T20:23:54.961Z,8.29
2022-12-19T20:28:58.848Z,8.24
2022-12-19T20:34:02.595Z,8.23
2022-12-19T20:39:07.937Z,8.20
2022-12-19T20:44:11.818Z,8.09
2022-12-19T20:49:15.535Z,8.07
2022-12-19T20:54:21.043Z,8.06
2022-12-19T20:59:24.710Z,8.05
2022-12-19T21:04:28.807Z,8.09
2022-12-19T21:09:34.250Z,8.06
2022-12-19T21:14:37.954Z,8.08
2022-12-19T21:19:41.827Z,8.05
2022-12-19T21:24:47.064Z,8.06
2022-12-19T21:29:50.801Z,8.03
2022-12-19T21:34:54.669Z,8.01
2022-12-19T21:39:59.723Z,7.98
2022-12-19T21:45:03.392Z,8.04
2022-12-19T21:50:09.171Z,8.02
2022-12-19T21:55:14.229Z,8.07
2022-12-19T22:00:18.505Z,8.12
2022-12-19T22:05:22.217Z,8.08
2022-12-19T22:10:27.259Z,8.16
2022-12-19T22:15:31.224Z,8.20
2022-12-19T22:20:34.991Z,8.23
2022-12-19T22:25:40.097Z,8.24
2022-12-19T22:30:43.843Z,8.22
2022-12-19T22:35:47.582Z,8.22
2022-12-19T22:40:52.958Z,8.21
2022-12-19T22:45:56.747Z,8.17
2022-12-19T22:51:00.576Z,8.22
2022-12-19T22:56:08.168Z,8.22
2022-12-19T23:01:16.776Z,8.24
2022-12-19T23:06:21.389Z,8.26
2022-12-19T23:11:28.878Z,8.25
2022-12-19T23:16:32.789Z,8.24
2022-12-19T23:21:37.598Z,8.33
2022-12-19T23:26:43.052Z,8.40
2022-12-19T23:31:48.269Z,8.37
2022-12-19T23:42:17.050Z,8.37
2022-12-19T23:47:20.982Z,8.43
2022-12-19T23:52:24.721Z,8.45
2022-12-19T23:57:29.914Z,8.53
